createdAt,value
2023-03-20T00:02:47.092Z,101947.56
2023-03-20T00:07:53.414Z,101947.41
2023-03-20T00:12:58.209Z,101937.81
2023-03-20T00:18:02.224Z,101925.06
2023-03-20T00:23:07.720Z,101916.75
2023-03-20T00:28:40.777Z,101910.63
2023-03-20T00:33:45.526Z,101906.28
2023-03-20T00:38:51.434Z,101895.81
2023-03-20T00:44:01.248Z,101906.13
2023-03-20T00:49:05.440Z,101927.41
2023-03-20T00:54:15.846Z,101955.16
2023-03-20T00:59:25.010Z,101966.81
2023-03-20T01:04:37.098Z,101957.47
2023-03-20T01:09:42.898Z,101931.13
2023-03-20T01:14:47.848Z,101922.69
2023-03-20T01:19:52.212Z,101950.09
2023-03-20T01:24:57.631Z,101942.91
2023-03-20T01:30:01.676Z,101933.13
2023-03-20T01:35:07.568Z,101904.59
2023-03-20T01:40:33.636Z,101921.47
2023-03-20T01:45:39.530Z,101916.88
2023-03-20T01:50:43.847Z,101926.47
2023-03-20T01:55:57.641Z,101948.75
2023-03-20T02:01:06.392Z,101953.50
2023-03-20T02:06:11.214Z,101972.81
2023-03-20T02:11:38.629Z,101958.78
2023-03-20T02:16:42.888Z,101955.31
2023-03-20T02:22:40.095Z,101946.91
2023-03-20T02:28:34.569Z,101919.97
2023-03-20T02:34:17.453Z,101924.78
2023-03-20T02:39:48.315Z,101934.88
2023-03-20T02:45:05.325Z,101926.56
2023-03-20T02:50:19.033Z,101915.53
2023-03-20T02:55:34.695Z,101905.19
2023-03-20T03:00:49.113Z,101904.38
2023-03-20T03:05:59.233Z,101898.53
2023-03-20T03:11:09.453Z,101900.38
2023-03-20T03:16:19.047Z,101893.88
2023-03-20T03:21:23.830Z,101901.13
2023-03-20T03:26:35.669Z,101896.66
2023-03-20T03:31:39.981Z,101886.59
2023-03-20T03:36:51.690Z,101881.78
2023-03-20T03:42:06.558Z,101876.22
2023-03-20T03:47:14.722Z,101879.34
2023-03-20T03:52:23.937Z,101882.13
2023-03-20T03:57:35.489Z,101887.00
2023-03-20T04:02:42.709Z,101881.69
2023-03-20T04:07:47.657Z,101889.66
2023-03-20T04:12:53.078Z,101878.41
2023-03-20T04:17:57.764Z,101867.41
2023-03-20T04:23:02.085Z,101867.06
2023-03-20T04:28:08.446Z,101862.75
2023-03-20T04:33:27.758Z,101853.47
2023-03-20T04:38:40.634Z,101847.09
2023-03-20T04:43:46.215Z,101847.19
2023-03-20T04:48:50.956Z,101844.38
2023-03-20T04:53:56.222Z,101842.59
2023-03-20T04:59:01.791Z,101845.75
2023-03-20T05:04:06.966Z,101853.38
2023-03-20T05:09:11.596Z,101842.03
2023-03-20T05:14:17.164Z,101845.00
2023-03-20T05:19:43.203Z,101843.38
2023-03-20T05:24:47.258Z,101842.91
2023-03-20T05:30:13.336Z,101833.72
2023-03-20T05:35:46.981Z,101830.50
2023-03-20T05:41:09.547Z,101819.72
2023-03-20T05:46:37.476Z,101829.47
2023-03-20T05:51:52.229Z,101833.47
2023-03-20T05:57:17.644Z,101863.06
2023-03-20T06:02:36.882Z,101862.56
2023-03-20T06:07:51.584Z,101856.19
2023-03-20T06:12:56.992Z,101865.50
2023-03-20T06:18:04.972Z,101867.69
2023-03-20T06:23:09.701Z,101866.44
2023-03-20T06:28:13.947Z,101870.00
2023-03-20T06:33:19.494Z,101879.81
2023-03-20T06:38:35.011Z,101890.34
2023-03-20T06:43:45.275Z,101894.06
2023-03-20T06:48:52.252Z,101893.78
2023-03-20T06:53:56.582Z,101897.84
2023-03-20T06:59:03.947Z,101909.59
2023-03-20T07:04:09.572Z,101910.69
2023-03-20T07:09:22.156Z,101912.75
2023-03-20T07:14:26.343Z,101909.78
2023-03-20T07:19:43.647Z,101921.13
2023-03-20T07:24:47.688Z,101933.84
2023-03-20T07:29:53.015Z,101941.63
2023-03-20T07:34:59.146Z,101930.34
2023-03-20T07:40:07.052Z,101934.22
2023-03-20T07:45:18.507Z,101924.78
2023-03-20T07:50:23.952Z,101916.94
2023-03-20T07:55:28.003Z,101928.09
2023-03-20T08:00:32.391Z,101929.44
2023-03-20T08:05:38.457Z,101924.78
2023-03-20T08:10:43.000Z,101919.84
2023-03-20T08:15:48.708Z,101919.75
2023-03-20T08:20:54.079Z,101925.94
2023-03-20T08:25:58.158Z,101924.84
2023-03-20T08:31:02.266Z,101933.41
2023-03-20T08:36:09.257Z,101931.78
2023-03-20T08:41:13.192Z,101932.88
2023-03-20T08:46:18.478Z,101926.94
2023-03-20T08:51:23.890Z,101937.69
2023-03-20T08:56:27.983Z,101929.44
2023-03-20T09:01:47.826Z,101925.41
2023-03-20T09:06:55.001Z,101935.88
2023-03-20T09:11:59.640Z,101941.50
2023-03-20T09:17:03.621Z,101942.50
2023-03-20T09:22:09.155Z,101942.81
2023-03-20T09:27:13.957Z,101938.13
2023-03-20T09:32:18.057Z,101940.41
2023-03-20T09:37:23.515Z,101930.53
2023-03-20T09:42:43.186Z,101927.03
2023-03-20T09:47:55.949Z,101929.44
2023-03-20T09:53:07.314Z,101932.31
2023-03-20T09:58:16.476Z,101934.81
2023-03-20T10:03:26.344Z,101924.34
2023-03-20T10:08:36.380Z,101914.84
2023-03-20T10:13:56.000Z,101910.50
2023-03-20T10:19:09.382Z,101905.31
2023-03-20T10:24:21.249Z,101912.97
2023-03-20T10:29:34.956Z,101906.78
2023-03-20T10:34:59.160Z,101899.94
2023-03-20T10:40:29.078Z,101902.56
2023-03-20T10:45:39.592Z,101897.38
2023-03-20T10:50:47.551Z,101899.22
2023-03-20T10:55:58.468Z,101887.59
2023-03-20T11:01:03.549Z,101889.06
2023-03-20T11:06:17.430Z,101879.28
2023-03-20T11:11:28.621Z,101874.47
2023-03-20T11:16:36.800Z,101862.69
2023-03-20T11:21:49.506Z,101863.75
2023-03-20T11:26:56.613Z,101858.16
2023-03-20T11:32:06.055Z,101856.16
2023-03-20T11:37:25.896Z,101844.31
2023-03-20T11:42:34.093Z,101840.25
2023-03-20T11:47:38.442Z,101838.75
2023-03-20T11:52:42.531Z,101846.00
2023-03-20T11:57:48.774Z,101835.31
2023-03-20T12:02:53.327Z,101839.47
2023-03-20T12:08:02.984Z,101831.22
2023-03-20T12:13:16.170Z,101826.13
2023-03-20T12:18:30.292Z,101827.53
2023-03-20T12:23:40.244Z,101811.22
2023-03-20T12:28:53.393Z,101813.53
2023-03-20T12:34:05.985Z,101811.53
2023-03-20T12:39:16.029Z,101805.84
2023-03-20T12:44:41.047Z,101805.72
2023-03-20T12:49:56.005Z,101793.59
2023-03-20T12:55:17.730Z,101776.53
2023-03-20T13:00:32.204Z,101789.22
2023-03-20T13:05:46.371Z,101785.69
2023-03-20T13:10:58.655Z,101778.81
2023-03-20T13:16:17.966Z,101771.84
2023-03-20T13:21:29.072Z,101774.41
2023-03-20T13:26:39.457Z,101786.84
2023-03-20T13:31:57.277Z,101772.69
2023-03-20T13:37:23.487Z,101768.13
2023-03-20T13:42:32.586Z,101776.44
2023-03-20T13:47:39.402Z,101752.75
2023-03-20T13:52:50.740Z,101772.56
2023-03-20T13:58:22.752Z,101756.88
2023-03-20T14:03:31.605Z,101748.50
2023-03-20T14:08:37.532Z,101745.69
2023-03-20T14:13:47.393Z,101743.94
2023-03-20T14:19:09.128Z,101735.25
2023-03-20T14:24:17.235Z,101727.44
2023-03-20T14:29:39.267Z,101734.53
2023-03-20T14:34:50.399Z,101720.78
2023-03-20T14:40:01.888Z,101724.84
2023-03-20T14:45:37.681Z,101726.47
2023-03-20T14:51:01.035Z,101723.81
2023-03-20T14:56:12.254Z,101723.63
2023-03-20T15:01:20.592Z,101711.59
2023-03-20T15:06:29.818Z,101718.00
2023-03-20T15:11:34.898Z,101711.00
2023-03-20T15:16:39.663Z,101705.47
2023-03-20T15:21:48.197Z,101699.34
2023-03-20T15:26:57.436Z,101689.97
2023-03-20T15:32:13.804Z,101696.91
2023-03-20T15:37:24.830Z,101685.25
2023-03-20T15:42:28.978Z,101677.16
2023-03-20T15:47:33.203Z,101690.56
2023-03-20T15:52:43.507Z,101686.81
2023-03-20T15:57:50.377Z,101677.19
2023-03-20T16:02:54.969Z,101684.31
2023-03-20T16:08:13.846Z,101679.41
2023-03-20T16:13:18.770Z,101679.25
2023-03-20T16:18:23.567Z,101687.09
2023-03-20T16:23:37.245Z,101682.16
2023-03-20T16:28:41.293Z,101678.28
2023-03-20T16:33:46.356Z,101665.16
2023-03-20T16:39:00.449Z,101676.97
2023-03-20T16:44:09.413Z,101663.66
2023-03-20T16:50:04.554Z,101668.38
2023-03-20T16:55:18.139Z,101666.63
2023-03-20T17:00:28.448Z,101667.19
2023-03-20T17:05:46.273Z,101664.28
2023-03-20T17:10:58.326Z,101660.41
2023-03-20T17:16:02.526Z,101657.19
2023-03-20T17:21:07.541Z,101664.13
2023-03-20T17:26:14.438Z,101669.28
2023-03-20T17:31:19.315Z,101664.97
2023-03-20T17:36:27.150Z,101674.44
2023-03-20T17:41:32.592Z,101675.44
2023-03-20T17:46:50.031Z,101677.88
2023-03-20T17:52:00.390Z,101687.69
2023-03-20T17:57:05.821Z,101680.59
2023-03-20T18:02:11.236Z,101677.22
2023-03-20T18:07:16.757Z,101678.88
2023-03-20T18:12:22.142Z,101681.94
2023-03-20T18:17:27.861Z,101688.00
2023-03-20T18:22:31.988Z,101684.19
2023-03-20T18:27:37.437Z,101687.66
2023-03-20T18:32:41.460Z,101688.47
2023-03-20T18:37:45.757Z,101696.03
2023-03-20T18:42:51.345Z,101691.00
2023-03-20T18:47:55.940Z,101693.63
2023-03-20T18:53:01.356Z,101693.47
2023-03-20T18:58:07.044Z,101695.38
2023-03-20T19:03:13.113Z,101708.41
2023-03-20T19:08:17.534Z,101697.59
2023-03-20T19:13:24.784Z,101696.16
2023-03-20T19:18:29.076Z,101696.78
2023-03-20T19:23:33.062Z,101695.63
2023-03-20T19:28:41.159Z,101701.34
2023-03-20T19:33:46.009Z,101688.34
2023-03-20T19:38:50.244Z,101696.31
2023-03-20T19:43:56.455Z,101687.19
2023-03-20T19:49:00.654Z,101678.75
2023-03-20T19:54:04.728Z,101674.59
2023-03-20T19:59:10.135Z,101672.31
2023-03-20T20:04:14.198Z,101672.41
2023-03-20T20:09:18.412Z,101666.09
2023-03-20T20:14:24.184Z,101661.41
2023-03-20T20:19:28.543Z,101661.91
2023-03-20T20:24:32.823Z,101656.13
2023-03-20T20:29:38.262Z,101661.88
2023-03-20T20:40:09.285Z,101666.44
2023-03-20T20:45:15.448Z,101666.22
2023-03-20T20:50:22.222Z,101662.56
2023-03-20T20:55:26.701Z,101665.94
2023-03-20T21:00:48.357Z,101669.97
2023-03-20T21:05:54.057Z,101657.53
2023-03-20T21:10:58.066Z,101658.22
2023-03-20T21:16:03.811Z,101651.69
2023-03-20T21:21:09.288Z,101648.38
2023-03-20T21:26:13.369Z,101663.00
2023-03-20T21:31:29.559Z,101658.88
2023-03-20T21:36:35.338Z,101663.34
2023-03-20T21:41:41.265Z,101664.09
2023-03-20T21:47:22.600Z,101663.03
2023-03-20T21:52:59.865Z,101657.25
2023-03-20T22:03:10.864Z,101659.06
2023-03-20T22:09:14.896Z,101663.41
2023-03-20T22:25:08.486Z,101661.09
2023-03-20T22:41:37.964Z,101653.06
2023-03-20T22:46:39.990Z,101648.31
2023-03-20T22:51:43.988Z,101656.06
2023-03-20T22:56:56.645Z,101644.16
2023-03-20T23:02:00.782Z,101648.50
2023-03-20T23:07:06.284Z,101645.50
2023-03-20T23:12:10.289Z,101641.34
2023-03-20T23:17:14.634Z,101642.38
2023-03-20T23:22:20.405Z,101643.28
2023-03-20T23:27:24.387Z,101631.16
2023-03-20T23:32:28.507Z,101631.19
2023-03-20T23:37:33.969Z,101630.03
2023-03-20T23:42:37.945Z,101623.69
2023-03-20T23:53:19.449Z,101626.63
2023-03-20T23:58:26.138Z,101625.97
